This is the latest recevied weather packets stored in our database for station/object DG0PX-12. If no packets are shown the sender has not sent any weather packets the latest 10 day(s).
| Time | Temp. | Humidity | Pressure | Rain* | Wind** | Luminosity | Snow |
|---|---|---|---|---|---|---|---|
| 1787839177 | 36.11° C | 33% | 947.8 hPa | - | - | - | - |
| 1787838277 | 35.56° C | 33% | 947.9 hPa | - | - | - | - |
| 1787837377 | 37.22° C | 32% | 948 hPa | - | - | - | - |
| 1787836477 | 36.67° C | 33% | 948.1 hPa | - | - | - | - |
| 1787835577 | 35° C | 36% | 948 hPa | - | - | - | - |
| 1787834677 | 36.67° C | 34% | 948.1 hPa | - | - | - | - |
| 1787833777 | 35° C | 36% | 948.4 hPa | - | - | - | - |
| 1787832877 | 36.67° C | 33% | 948.4 hPa | - | - | - | - |
| 1787831977 | 36.67° C | 33% | 948.6 hPa | - | - | - | - |
| 1787831077 | 33.89° C | 37% | 948.4 hPa | - | - | - | - |
| 1787830176 | 35.56° C | 35% | 948.8 hPa | - | - | - | - |
| 1787829276 | 34.44° C | 36% | 948.9 hPa | - | - | - | - |
| 1787828376 | 35° C | 35% | 949.2 hPa | - | - | - | - |
| 1787827476 | 35° C | 34% | 949.1 hPa | - | - | - | - |
| 1787826576 | 35.56° C | 35% | 949 hPa | - | - | - | - |
| 1787825676 | 32.22° C | 41% | 948.9 hPa | - | - | - | - |
| 1787824775 | 30.56° C | 45% | 949 hPa | - | - | - | - |
| 1787823875 | 30.56° C | 44% | 949.1 hPa | - | - | - | - |
| 1787822975 | 30.56° C | 45% | 949 hPa | - | - | - | - |
| 1787822075 | 30° C | 44% | 948.7 hPa | - | - | - | - |
| 1787821175 | 29.44° C | 47% | 948.7 hPa | - | - | - | - |
| 1787820275 | 28.89° C | 49% | 948.5 hPa | - | - | - | - |
| 1787819375 | 28.89° C | 48% | 948.5 hPa | - | - | - | - |
| 1787818475 | 28.33° C | 48% | 948.6 hPa | - | - | - | - |
| 1787817574 | 28.89° C | 45% | 948.8 hPa | - | - | - | - |
* Rain since midnight (hover to see other rain measurements)
** Current wind speed in m/s (hover to see current wind gust speed)